createdAt,value
2018-03-12T00:00:34.996Z,14.47
2018-03-12T00:03:03.437Z,14.28
2018-03-12T00:05:31.840Z,14.63
2018-03-12T00:08:00.224Z,14.20
2018-03-12T00:10:28.622Z,14.27
2018-03-12T00:12:57.020Z,14.46
2018-03-12T00:15:25.462Z,14.20
2018-03-12T00:17:53.870Z,14.13
2018-03-12T00:20:22.254Z,14.29
2018-03-12T00:22:50.653Z,14.53
2018-03-12T00:25:19.104Z,14.70
2018-03-12T00:27:47.479Z,14.32
2018-03-12T00:30:16.017Z,14.72
2018-03-12T00:32:44.414Z,14.75
2018-03-12T00:35:12.818Z,14.57
2018-03-12T00:37:41.215Z,14.75
2018-03-12T00:40:09.712Z,14.64
2018-03-12T00:42:38.166Z,14.75
2018-03-12T00:45:06.736Z,14.88
2018-03-12T00:47:35.196Z,14.59
2018-03-12T00:50:03.591Z,14.68
2018-03-12T00:52:31.984Z,14.80
2018-03-12T00:55:00.384Z,14.79
2018-03-12T00:57:28.784Z,14.90
2018-03-12T00:59:57.293Z,14.98
2018-03-12T01:02:25.667Z,14.95
2018-03-12T01:04:54.077Z,14.98
2018-03-12T01:07:23.211Z,15.06
2018-03-12T01:09:51.848Z,15.18
2018-03-12T01:12:20.241Z,15.33
2018-03-12T01:14:48.623Z,15.04
2018-03-12T01:17:17.020Z,14.91
2018-03-12T01:19:45.401Z,15.13
2018-03-12T01:22:13.913Z,15.26
2018-03-12T01:24:42.271Z,15.29
2018-03-12T01:27:10.662Z,15.39
2018-03-12T01:29:39.022Z,15.38
2018-03-12T01:32:07.437Z,15.47
2018-03-12T01:34:35.825Z,15.25
2018-03-12T01:37:04.222Z,15.47
2018-03-12T01:39:32.804Z,15.37
2018-03-12T01:42:01.207Z,15.30
2018-03-12T01:44:29.598Z,15.53
2018-03-12T01:46:57.956Z,15.59
2018-03-12T01:49:26.315Z,15.52
2018-03-12T01:51:54.743Z,15.19
2018-03-12T01:54:23.132Z,15.01
2018-03-12T01:56:51.567Z,14.83
2018-03-12T01:59:19.940Z,14.81
2018-03-12T02:01:48.326Z,15.07
2018-03-12T02:04:16.773Z,15.26
2018-03-12T02:06:45.143Z,15.21
2018-03-12T02:09:13.519Z,15.26
2018-03-12T02:11:41.908Z,15.51
2018-03-12T02:14:10.298Z,15.44
2018-03-12T02:16:38.691Z,15.35
2018-03-12T02:19:07.083Z,15.62
2018-03-12T02:21:35.523Z,15.51
2018-03-12T02:24:03.890Z,15.51
2018-03-12T02:26:32.351Z,15.76
2018-03-12T02:29:00.742Z,15.78
2018-03-12T02:31:29.100Z,15.66
2018-03-12T02:33:57.467Z,15.75
2018-03-12T02:36:25.821Z,15.68
2018-03-12T02:38:54.223Z,15.32
2018-03-12T02:41:22.577Z,15.26
2018-03-12T02:43:51.087Z,15.54
2018-03-12T02:46:19.517Z,15.20
2018-03-12T02:48:47.872Z,14.83
2018-03-12T02:51:16.243Z,14.65
2018-03-12T02:53:44.629Z,14.88
2018-03-12T02:56:13.355Z,15.18
2018-03-12T02:58:41.727Z,15.00
2018-03-12T03:01:10.103Z,15.51
2018-03-12T03:03:38.549Z,15.54
2018-03-12T03:06:06.935Z,15.55
2018-03-12T03:08:35.387Z,15.56
2018-03-12T03:11:03.802Z,15.41
2018-03-12T03:13:32.153Z,15.44
2018-03-12T03:16:00.524Z,15.53
2018-03-12T03:18:28.942Z,15.61
2018-03-12T03:20:57.458Z,15.67
2018-03-12T03:23:25.843Z,15.48
2018-03-12T03:25:54.179Z,15.65
2018-03-12T03:28:22.581Z,15.54
2018-03-12T03:30:50.964Z,15.52
2018-03-12T03:33:19.479Z,15.77
2018-03-12T03:35:47.860Z,15.25
2018-03-12T03:38:16.296Z,15.23
2018-03-12T03:40:44.696Z,15.59
2018-03-12T03:43:13.051Z,15.75
2018-03-12T03:45:41.507Z,15.69
2018-03-12T03:48:09.906Z,15.70
2018-03-12T03:50:38.284Z,15.63
2018-03-12T03:53:06.643Z,15.61
2018-03-12T03:55:35.002Z,15.78
2018-03-12T03:58:03.490Z,15.70
2018-03-12T04:00:31.930Z,15.46
2018-03-12T04:03:00.318Z,15.85
2018-03-12T04:05:28.731Z,15.65
2018-03-12T04:07:57.075Z,15.53
2018-03-12T04:10:25.468Z,15.62
2018-03-12T04:12:53.855Z,15.39
2018-03-12T04:15:22.244Z,15.70
2018-03-12T04:17:50.690Z,15.59
2018-03-12T04:20:19.032Z,15.66
2018-03-12T04:22:47.424Z,15.93
2018-03-12T04:25:15.804Z,15.75
2018-03-12T04:27:44.171Z,15.78
2018-03-12T04:30:12.922Z,15.85
2018-03-12T04:32:41.296Z,15.70
2018-03-12T04:35:09.655Z,15.59
2018-03-12T04:37:38.057Z,15.68
2018-03-12T04:40:06.444Z,15.64
2018-03-12T04:42:34.973Z,15.80
2018-03-12T04:45:03.364Z,15.75
2018-03-12T04:47:31.768Z,15.75
2018-03-12T04:50:00.108Z,14.91
2018-03-12T04:52:28.470Z,15.21
2018-03-12T04:54:56.867Z,15.52
2018-03-12T04:57:25.243Z,15.78
2018-03-12T04:59:53.630Z,15.93
2018-03-12T05:02:22.019Z,15.96
2018-03-12T05:04:50.373Z,16.18
2018-03-12T05:07:18.816Z,16.00
2018-03-12T05:09:47.230Z,15.95
2018-03-12T05:12:15.647Z,16.29
2018-03-12T05:14:44.062Z,16.04
2018-03-12T05:17:12.443Z,16.06
2018-03-12T05:19:41.209Z,16.09
2018-03-12T05:22:09.604Z,16.15
2018-03-12T05:24:37.987Z,16.11
2018-03-12T05:27:06.380Z,16.12
2018-03-12T05:29:34.788Z,16.10
2018-03-12T05:32:03.357Z,16.11
2018-03-12T05:34:31.727Z,16.15
2018-03-12T05:37:00.138Z,15.88
2018-03-12T05:39:28.581Z,15.98
2018-03-12T05:41:56.922Z,16.28
2018-03-12T05:44:25.508Z,15.97
2018-03-12T05:46:53.888Z,15.65
2018-03-12T05:49:22.285Z,15.82
2018-03-12T05:51:50.670Z,15.78
2018-03-12T05:54:19.059Z,15.71
2018-03-12T05:56:47.483Z,15.99
2018-03-12T05:59:15.868Z,16.17
2018-03-12T06:01:44.331Z,15.85
2018-03-12T06:04:12.704Z,15.76
2018-03-12T06:06:41.074Z,15.62
2018-03-12T06:09:09.548Z,15.29
2018-03-12T06:11:37.912Z,15.33
2018-03-12T06:14:06.272Z,16.01
2018-03-12T06:16:34.684Z,15.49
2018-03-12T06:19:03.069Z,15.85
2018-03-12T06:21:31.821Z,16.05
2018-03-12T06:24:00.217Z,15.84
2018-03-12T06:26:28.684Z,15.54
2018-03-12T06:28:57.074Z,15.76
2018-03-12T06:31:25.466Z,15.95
2018-03-12T06:33:54.213Z,15.93
2018-03-12T06:36:22.584Z,15.94
2018-03-12T06:38:50.978Z,15.79
2018-03-12T06:41:19.382Z,15.42
2018-03-12T06:43:47.771Z,15.74
2018-03-12T06:46:16.144Z,15.67
2018-03-12T06:48:44.562Z,15.83
2018-03-12T06:51:13.027Z,15.54
2018-03-12T06:53:41.483Z,15.95
2018-03-12T06:56:09.897Z,15.78
2018-03-12T06:58:38.357Z,16.15
2018-03-12T07:01:06.755Z,15.85
2018-03-12T07:03:35.200Z,15.92
2018-03-12T07:06:03.578Z,16.44
2018-03-12T07:08:31.976Z,15.76
2018-03-12T07:11:00.383Z,16.27
2018-03-12T07:13:28.794Z,16.18
2018-03-12T07:15:57.180Z,16.36
2018-03-12T07:18:25.587Z,16.51
2018-03-12T07:20:54.040Z,16.55
2018-03-12T07:23:22.456Z,16.85
2018-03-12T07:25:50.879Z,16.42
2018-03-12T07:28:19.286Z,16.79
2018-03-12T07:30:47.718Z,16.40
2018-03-12T07:33:16.459Z,16.43
2018-03-12T07:35:44.824Z,16.78
2018-03-12T07:38:13.199Z,16.22
2018-03-12T07:40:41.568Z,16.39
2018-03-12T07:43:10.012Z,16.65
2018-03-12T07:45:38.479Z,16.29
2018-03-12T07:48:06.867Z,16.58
2018-03-12T07:50:35.340Z,16.97
2018-03-12T07:53:03.737Z,17.02
2018-03-12T07:55:32.472Z,16.76
2018-03-12T07:58:01.057Z,16.82
2018-03-12T08:00:29.504Z,16.42
2018-03-12T08:02:58.365Z,16.71
2018-03-12T08:05:26.765Z,17.12
2018-03-12T08:07:55.190Z,17.17
2018-03-12T08:10:23.706Z,17.13
2018-03-12T08:12:52.135Z,17.21
2018-03-12T08:15:20.589Z,17.10
2018-03-12T08:17:48.999Z,17.16
2018-03-12T08:20:17.497Z,16.28
2018-03-12T08:22:45.898Z,16.03
2018-03-12T08:25:14.308Z,16.93
2018-03-12T08:27:42.765Z,16.80
2018-03-12T08:30:11.166Z,16.87
2018-03-12T08:32:39.563Z,16.79
2018-03-12T08:35:08.091Z,17.24
2018-03-12T08:37:36.449Z,16.68
2018-03-12T08:40:06.009Z,17.17
2018-03-12T08:42:34.420Z,16.73
2018-03-12T08:45:02.856Z,17.18
2018-03-12T08:47:31.236Z,16.56
2018-03-12T08:49:59.617Z,15.78
2018-03-12T08:52:28.135Z,15.97
2018-03-12T08:54:56.526Z,15.83
2018-03-12T08:57:24.912Z,16.00
2018-03-12T08:59:53.331Z,16.38
2018-03-12T09:02:21.736Z,16.44
2018-03-12T09:04:50.173Z,16.50
2018-03-12T09:07:18.579Z,16.08
2018-03-12T09:09:46.989Z,16.68
2018-03-12T09:12:15.379Z,16.07
2018-03-12T09:14:43.840Z,15.82
2018-03-12T09:17:12.266Z,16.36
2018-03-12T09:19:40.677Z,16.31
2018-03-12T09:22:09.044Z,15.71
2018-03-12T09:24:37.509Z,15.60
2018-03-12T09:27:05.905Z,15.69
2018-03-12T09:29:34.373Z,15.80
2018-03-12T09:32:02.834Z,15.17
2018-03-12T09:34:31.199Z,15.21
2018-03-12T09:36:59.608Z,15.83
2018-03-12T09:39:28.079Z,15.50
2018-03-12T09:41:56.523Z,15.61
2018-03-12T09:44:24.901Z,15.38
2018-03-12T09:46:53.293Z,15.97
2018-03-12T09:49:21.663Z,15.49
2018-03-12T09:51:50.083Z,15.60
2018-03-12T09:54:18.621Z,15.59
2018-03-12T09:56:47.044Z,16.14
2018-03-12T09:59:15.507Z,16.57
2018-03-12T10:01:43.901Z,16.74
2018-03-12T10:04:12.287Z,16.40
2018-03-12T10:06:40.739Z,16.35
2018-03-12T10:09:09.134Z,16.93
2018-03-12T10:11:37.553Z,17.49
2018-03-12T10:14:05.916Z,17.28
2018-03-12T10:16:34.282Z,17.10
2018-03-12T10:19:03.076Z,17.15
2018-03-12T10:21:31.485Z,17.49
2018-03-12T10:23:59.952Z,16.76
2018-03-12T10:26:28.332Z,17.04
2018-03-12T10:28:56.733Z,16.76
2018-03-12T10:31:25.179Z,16.56
2018-03-12T10:33:53.544Z,16.25
2018-03-12T10:36:22.024Z,16.81
2018-03-12T10:38:50.388Z,17.21
2018-03-12T10:41:18.752Z,17.45
2018-03-12T10:43:47.257Z,16.49
2018-03-12T10:46:15.679Z,17.43
2018-03-12T10:48:44.028Z,17.24
2018-03-12T10:51:12.430Z,17.77
2018-03-12T10:53:40.783Z,17.81
2018-03-12T10:56:09.242Z,17.25
2018-03-12T10:58:37.612Z,17.82
2018-03-12T11:01:06.003Z,17.65
2018-03-12T11:03:39.921Z,17.44
2018-03-12T11:06:13.987Z,17.96
2018-03-12T11:08:55.289Z,18.12
2018-03-12T11:11:23.728Z,18.11
2018-03-12T11:13:52.150Z,18.41
2018-03-12T11:16:20.542Z,18.43
2018-03-12T11:18:48.904Z,17.98
2018-03-12T11:21:17.269Z,18.30
2018-03-12T11:23:45.656Z,18.24
2018-03-12T11:26:14.093Z,18.12
2018-03-12T11:28:42.494Z,18.76
2018-03-12T11:31:10.855Z,19.31
2018-03-12T11:33:39.248Z,20.31
2018-03-12T11:36:07.614Z,20.90
2018-03-12T11:38:36.149Z,20.42
2018-03-12T11:41:04.513Z,20.95
2018-03-12T11:43:32.982Z,21.95
2018-03-12T11:46:01.391Z,23.63
2018-03-12T11:48:29.751Z,24.10
2018-03-12T11:50:58.168Z,25.15
2018-03-12T11:53:26.543Z,24.51
2018-03-12T11:55:54.916Z,23.71
2018-03-12T11:58:23.411Z,23.05
2018-03-12T12:00:51.792Z,22.71
2018-03-12T12:03:20.548Z,22.71
2018-03-12T12:05:48.913Z,22.64
2018-03-12T12:08:17.323Z,22.37
2018-03-12T12:10:45.696Z,22.04
2018-03-12T12:13:14.082Z,21.25
2018-03-12T12:15:42.517Z,20.90
2018-03-12T12:18:10.878Z,21.08
2018-03-12T12:20:39.294Z,22.15
2018-03-12T12:23:07.650Z,22.74
2018-03-12T12:25:36.027Z,22.40
2018-03-12T12:28:04.680Z,22.29
2018-03-12T12:30:33.087Z,20.72
2018-03-12T12:33:01.475Z,20.37
2018-03-12T12:35:29.950Z,18.84
2018-03-12T12:37:58.753Z,18.40
2018-03-12T12:40:27.301Z,18.26
2018-03-12T12:42:55.875Z,17.51
2018-03-12T12:45:25.272Z,17.46
2018-03-12T12:47:53.754Z,17.57
2018-03-12T12:50:22.162Z,18.07
2018-03-12T12:52:50.561Z,18.11
2018-03-12T12:55:18.945Z,19.11
2018-03-12T12:57:47.299Z,19.14
2018-03-12T13:00:15.730Z,18.07
2018-03-12T13:02:44.129Z,18.03
2018-03-12T13:05:12.644Z,18.19
2018-03-12T13:07:41.043Z,18.09
2018-03-12T13:10:09.407Z,18.35
2018-03-12T13:12:37.797Z,18.32
2018-03-12T13:15:06.320Z,17.57
2018-03-12T13:17:34.740Z,18.72
2018-03-12T13:20:03.120Z,18.20
2018-03-12T13:22:31.504Z,17.38
2018-03-12T13:24:59.967Z,18.56
2018-03-12T13:27:28.331Z,18.21
2018-03-12T13:29:57.089Z,18.02
2018-03-12T13:32:26.714Z,18.43
2018-03-12T13:34:55.108Z,18.43
2018-03-12T13:37:23.468Z,18.18
2018-03-12T13:39:51.864Z,18.15
2018-03-12T13:42:20.400Z,18.01
2018-03-12T13:44:48.930Z,17.95
2018-03-12T13:47:17.290Z,17.58
2018-03-12T13:49:45.664Z,17.32
2018-03-12T13:52:14.055Z,17.50
2018-03-12T13:54:42.497Z,16.84
2018-03-12T13:57:10.848Z,16.43
2018-03-12T13:59:39.221Z,17.80
2018-03-12T14:02:07.670Z,17.04
2018-03-12T14:04:36.087Z,16.70
2018-03-12T14:07:04.502Z,15.94
2018-03-12T14:09:32.873Z,16.04
2018-03-12T14:12:01.250Z,16.89
2018-03-12T14:14:29.611Z,16.67
2018-03-12T14:16:57.975Z,17.88
2018-03-12T14:19:26.402Z,17.10
2018-03-12T14:21:54.790Z,17.30
2018-03-12T14:24:23.397Z,16.89
2018-03-12T14:26:51.761Z,16.91
2018-03-12T14:29:20.136Z,16.17
2018-03-12T14:31:48.762Z,16.67
2018-03-12T14:34:17.184Z,17.40
2018-03-12T14:36:45.665Z,17.40
2018-03-12T14:39:14.178Z,16.71
2018-03-12T14:41:42.561Z,16.13
2018-03-12T14:44:11.216Z,16.03
2018-03-12T14:46:39.598Z,15.83
2018-03-12T14:49:08.046Z,15.45
2018-03-12T14:51:36.442Z,15.89
2018-03-12T14:54:04.813Z,15.45
2018-03-12T14:56:33.413Z,15.89
2018-03-12T14:59:01.787Z,16.57
2018-03-12T15:01:30.274Z,16.45
2018-03-12T15:03:58.778Z,15.95
2018-03-12T15:06:28.005Z,16.13
2018-03-12T15:09:01.893Z,15.74
2018-03-12T15:11:30.383Z,16.28
2018-03-12T15:13:59.306Z,16.85
2018-03-12T15:16:27.711Z,16.92
2018-03-12T15:18:56.213Z,17.23
2018-03-12T15:21:24.899Z,17.31
2018-03-12T15:23:53.255Z,16.90
2018-03-12T15:26:21.691Z,16.29
2018-03-12T15:28:50.054Z,16.61
2018-03-12T15:31:18.406Z,16.39
2018-03-12T15:33:46.768Z,16.52
2018-03-12T15:36:15.135Z,17.05
2018-03-12T15:38:44.080Z,16.66
2018-03-12T15:41:12.646Z,16.90
2018-03-12T15:43:41.061Z,16.69
2018-03-12T15:46:09.665Z,16.73
2018-03-12T15:48:38.125Z,15.52
2018-03-12T15:51:06.617Z,15.45
2018-03-12T15:53:35.224Z,16.04
2018-03-12T15:56:03.759Z,16.03
2018-03-12T15:58:33.248Z,16.49
2018-03-12T16:01:01.716Z,16.58
2018-03-12T16:03:30.105Z,16.29
2018-03-12T16:05:58.555Z,15.58
2018-03-12T16:08:27.025Z,16.14
2018-03-12T16:10:55.416Z,17.01
2018-03-12T16:13:23.815Z,16.39
2018-03-12T16:15:52.311Z,16.72
2018-03-12T16:18:20.849Z,16.79
2018-03-12T16:20:49.222Z,16.36
2018-03-12T16:23:17.981Z,15.99
2018-03-12T16:25:46.375Z,15.89
2018-03-12T16:28:14.765Z,16.02
2018-03-12T16:30:43.159Z,15.45
2018-03-12T16:33:11.576Z,14.96
2018-03-12T16:35:40.029Z,15.72
2018-03-12T16:38:08.415Z,15.64
2018-03-12T16:40:36.808Z,16.24
2018-03-12T16:43:05.204Z,16.37
2018-03-12T16:45:33.679Z,15.81
2018-03-12T16:48:02.108Z,16.01
2018-03-12T16:50:30.506Z,15.51
2018-03-12T16:52:58.910Z,15.13
2018-03-12T16:55:27.306Z,15.42
2018-03-12T16:57:55.711Z,15.97
2018-03-12T17:00:24.181Z,15.78
2018-03-12T17:02:52.615Z,15.41
2018-03-12T17:05:21.014Z,15.73
2018-03-12T17:07:49.391Z,15.81
2018-03-12T17:10:17.805Z,15.50
2018-03-12T17:12:46.265Z,15.88
2018-03-12T17:15:14.756Z,16.48
2018-03-12T17:17:43.165Z,15.81
2018-03-12T17:20:11.587Z,15.85
2018-03-12T17:22:39.986Z,15.61
2018-03-12T17:25:08.857Z,15.39
2018-03-12T17:27:37.469Z,15.91
2018-03-12T17:30:05.935Z,15.22
2018-03-12T17:32:34.362Z,15.82
2018-03-12T17:35:02.815Z,15.84
2018-03-12T17:37:31.287Z,16.26
2018-03-12T17:39:59.684Z,15.57
2018-03-12T17:42:34.499Z,15.43
2018-03-12T17:45:03.110Z,14.72
2018-03-12T17:47:32.732Z,15.25
2018-03-12T17:50:01.229Z,14.74
2018-03-12T17:52:29.782Z,14.96
2018-03-12T17:54:58.396Z,15.18
2018-03-12T17:57:26.973Z,15.12
2018-03-12T17:59:55.426Z,14.68
2018-03-12T18:02:23.917Z,14.66
2018-03-12T18:04:52.390Z,15.42
2018-03-12T18:07:20.811Z,15.04
2018-03-12T18:09:49.266Z,15.56
2018-03-12T18:12:17.670Z,14.77
2018-03-12T18:14:46.116Z,14.46
2018-03-12T18:17:14.513Z,14.78
2018-03-12T18:19:42.906Z,14.79
2018-03-12T18:22:11.355Z,15.21
2018-03-12T18:24:39.802Z,15.01
2018-03-12T18:27:08.267Z,14.66
2018-03-12T18:29:36.660Z,14.36
2018-03-12T18:32:05.155Z,14.46
2018-03-12T18:34:33.628Z,14.37
2018-03-12T18:37:02.104Z,14.16
2018-03-12T18:39:30.546Z,14.02
2018-03-12T18:41:58.939Z,14.17
2018-03-12T18:44:27.328Z,14.03
2018-03-12T18:46:55.719Z,13.81
2018-03-12T18:49:24.221Z,14.48
2018-03-12T18:51:52.931Z,15.15
2018-03-12T18:54:21.410Z,14.51
2018-03-12T18:56:49.928Z,14.25
2018-03-12T18:59:18.528Z,14.03
2018-03-12T19:01:46.928Z,14.58
2018-03-12T19:04:15.605Z,13.59
2018-03-12T19:06:44.056Z,13.82
2018-03-12T19:09:12.458Z,13.67
2018-03-12T19:11:41.267Z,13.54
2018-03-12T19:14:10.384Z,13.88
2018-03-12T19:16:38.897Z,13.77
2018-03-12T19:19:07.296Z,14.14
2018-03-12T19:21:35.694Z,13.62
2018-03-12T19:24:04.099Z,14.28
2018-03-12T19:26:32.509Z,14.24
2018-03-12T19:29:01.119Z,14.42
2018-03-12T19:31:29.567Z,14.12
2018-03-12T19:33:57.946Z,14.52
2018-03-12T19:36:27.148Z,13.99
2018-03-12T19:38:55.940Z,13.54
2018-03-12T19:41:24.454Z,13.09
2018-03-12T19:43:53.292Z,13.29
2018-03-12T19:46:21.922Z,12.73
2018-03-12T19:48:50.315Z,12.93
2018-03-12T19:51:18.897Z,13.22
2018-03-12T19:53:47.361Z,13.44
2018-03-12T19:56:15.790Z,12.92
2018-03-12T19:58:44.980Z,13.66
2018-03-12T20:01:13.432Z,12.55
2018-03-12T20:03:42.261Z,12.19
2018-03-12T20:06:15.501Z,13.05
2018-03-12T20:08:47.811Z,13.73
2018-03-12T20:11:16.470Z,13.20
2018-03-12T20:13:51.670Z,12.56
2018-03-12T20:16:20.562Z,12.55
2018-03-12T20:18:48.978Z,13.58
2018-03-12T20:21:17.406Z,13.04
2018-03-12T20:23:46.021Z,13.20
2018-03-12T20:26:14.429Z,12.61
2018-03-12T20:28:42.848Z,12.48
2018-03-12T20:31:11.307Z,12.72
2018-03-12T20:33:39.744Z,12.63
2018-03-12T20:36:08.161Z,13.10
2018-03-12T20:38:36.606Z,13.39
2018-03-12T20:41:05.048Z,13.47
2018-03-12T20:43:33.444Z,12.69
2018-03-12T20:46:01.860Z,12.82
2018-03-12T20:48:30.252Z,12.35
2018-03-12T20:50:58.760Z,13.03
2018-03-12T20:53:27.236Z,12.98
2018-03-12T20:55:55.632Z,12.52
2018-03-12T20:58:24.067Z,13.54
2018-03-12T21:00:52.531Z,13.95
2018-03-12T21:03:20.966Z,14.08
2018-03-12T21:05:49.431Z,13.58
2018-03-12T21:08:17.858Z,13.44
2018-03-12T21:10:46.266Z,12.24
2018-03-12T21:13:14.672Z,12.99
2018-03-12T21:15:43.155Z,12.84
2018-03-12T21:18:11.560Z,12.56
2018-03-12T21:20:39.960Z,13.22
2018-03-12T21:23:08.375Z,13.46
2018-03-12T21:25:36.804Z,13.74
2018-03-12T21:28:05.338Z,12.94
2018-03-12T21:30:33.720Z,12.87
2018-03-12T21:33:02.113Z,12.87
2018-03-12T21:35:30.512Z,12.85
2018-03-12T21:37:58.879Z,13.14
2018-03-12T21:40:27.327Z,12.66
2018-03-12T21:42:55.761Z,12.15
2018-03-12T21:45:24.161Z,12.28
2018-03-12T21:47:52.626Z,12.95
2018-03-12T21:50:21.108Z,12.14
2018-03-12T21:52:49.576Z,12.52
2018-03-12T21:55:18.037Z,12.34
2018-03-12T21:57:46.505Z,12.88
2018-03-12T22:00:15.237Z,12.41
2018-03-12T22:02:43.720Z,12.61
2018-03-12T22:05:12.113Z,11.94
2018-03-12T22:07:40.576Z,12.80
2018-03-12T22:10:08.991Z,12.13
2018-03-12T22:12:37.375Z,12.63
2018-03-12T22:15:05.786Z,11.96
2018-03-12T22:17:34.247Z,12.57
2018-03-12T22:20:02.596Z,12.99
2018-03-12T22:22:30.980Z,12.32
2018-03-12T22:24:59.365Z,12.07
2018-03-12T22:27:27.716Z,12.42
2018-03-12T22:29:56.158Z,13.05
2018-03-12T22:32:24.555Z,12.95
2018-03-12T22:34:52.950Z,12.38
2018-03-12T22:37:21.338Z,12.78
2018-03-12T22:39:49.763Z,11.66
2018-03-12T22:42:18.207Z,12.49
2018-03-12T22:44:46.632Z,12.80
2018-03-12T22:47:15.000Z,12.23
2018-03-12T22:49:43.356Z,12.15
2018-03-12T22:52:11.757Z,12.18
2018-03-12T22:54:40.173Z,12.48
2018-03-12T22:57:08.572Z,12.04
2018-03-12T22:59:36.949Z,12.61
2018-03-12T23:02:05.334Z,13.18
2018-03-12T23:04:33.780Z,12.35
2018-03-12T23:07:02.166Z,12.46
2018-03-12T23:09:30.570Z,12.63
2018-03-12T23:11:58.951Z,12.25
2018-03-12T23:14:27.332Z,12.74
2018-03-12T23:16:55.716Z,13.19
2018-03-12T23:19:24.168Z,12.52
2018-03-12T23:21:52.544Z,12.81
2018-03-12T23:24:20.965Z,12.52
2018-03-12T23:26:49.364Z,12.70
2018-03-12T23:29:17.792Z,12.36
2018-03-12T23:31:46.273Z,12.43
2018-03-12T23:34:14.671Z,12.76
2018-03-12T23:36:43.060Z,12.85
2018-03-12T23:39:11.445Z,12.06
2018-03-12T23:41:39.845Z,12.39
2018-03-12T23:44:08.362Z,13.02
2018-03-12T23:46:36.752Z,12.13
2018-03-12T23:49:05.308Z,11.40
2018-03-12T23:51:33.696Z,11.63
2018-03-12T23:54:02.089Z,11.46
2018-03-12T23:56:30.476Z,11.85
2018-03-12T23:58:58.914Z,12.09
